createdAt,value
2019-02-22T00:03:58.610Z,98920.00
2019-02-22T00:09:08.697Z,98926.00
2019-02-22T00:14:15.386Z,98925.00
2019-02-22T00:19:23.963Z,98935.00
2019-02-22T00:24:33.091Z,98942.00
2019-02-22T00:29:41.931Z,98938.00
2019-02-22T00:34:48.879Z,98947.00
2019-02-22T00:39:55.767Z,98936.00
2019-02-22T00:45:02.542Z,98932.00
2019-02-22T00:50:10.079Z,98931.00
2019-02-22T00:55:18.101Z,98934.00
2019-02-22T01:00:26.224Z,98928.00
2019-02-22T01:05:35.146Z,98936.00
2019-02-22T01:10:42.569Z,98934.00
2019-02-22T01:15:49.334Z,98929.00
2019-02-22T01:20:55.825Z,98938.00
2019-02-22T01:26:04.223Z,98937.00
2019-02-22T01:31:11.126Z,98948.00
2019-02-22T01:36:18.053Z,98950.00
2019-02-22T01:41:24.143Z,98952.00
2019-02-22T01:46:32.457Z,98963.00
2019-02-22T01:51:39.766Z,98959.00
2019-02-22T01:56:47.919Z,98960.00
2019-02-22T02:01:55.172Z,98968.00
2019-02-22T02:07:02.260Z,98968.00
2019-02-22T02:12:09.178Z,98974.00
2019-02-22T02:17:17.855Z,98968.00
2019-02-22T02:22:24.463Z,98989.00
2019-02-22T02:27:30.455Z,98983.00
2019-02-22T02:32:36.530Z,98985.00
2019-02-22T02:37:42.935Z,98984.00
2019-02-22T02:42:49.877Z,98991.00
2019-02-22T02:47:57.516Z,98994.00
2019-02-22T02:53:04.884Z,99000.00
2019-02-22T02:58:14.513Z,99006.00
2019-02-22T03:03:22.281Z,99005.00
2019-02-22T03:08:29.801Z,99008.00
2019-02-22T03:13:35.914Z,99016.00
2019-02-22T03:18:42.745Z,99027.00
2019-02-22T03:23:52.636Z,99032.00
2019-02-22T03:29:00.721Z,99040.00
2019-02-22T03:34:10.559Z,99034.00
2019-02-22T03:39:17.588Z,99043.00
2019-02-22T03:44:27.488Z,99055.00
2019-02-22T03:49:34.056Z,99058.00
2019-02-22T03:54:41.559Z,99069.00
2019-02-22T03:59:51.024Z,99074.00
2019-02-22T04:04:57.353Z,99076.00
2019-02-22T04:10:04.947Z,99078.00
2019-02-22T04:15:13.473Z,99082.00
2019-02-22T04:20:21.264Z,99079.00
2019-02-22T04:25:27.721Z,99084.00
2019-02-22T04:30:34.653Z,99095.00
2019-02-22T04:35:41.574Z,99097.00
2019-02-22T04:40:51.160Z,99107.00
2019-02-22T04:45:57.704Z,99102.00
2019-02-22T04:51:04.226Z,99100.00
2019-02-22T04:56:10.904Z,99117.00
2019-02-22T05:01:37.668Z,99114.00
2019-02-22T05:06:45.236Z,99116.00
2019-02-22T05:11:52.564Z,99134.00
2019-02-22T05:16:59.539Z,99139.00
2019-02-22T05:22:06.401Z,99147.00
2019-02-22T05:27:13.227Z,99155.00
2019-02-22T05:32:20.107Z,99161.00
2019-02-22T05:37:25.868Z,99175.00
2019-02-22T05:42:33.161Z,99190.00
2019-02-22T05:47:40.136Z,99191.00
2019-02-22T05:52:46.048Z,99204.00
2019-02-22T05:57:54.398Z,99214.00
2019-02-22T06:03:03.010Z,99218.00
2019-02-22T06:08:09.847Z,99228.00
2019-02-22T06:13:16.451Z,99235.00
2019-02-22T06:18:23.967Z,99248.00
2019-02-22T06:23:31.537Z,99256.00
2019-02-22T06:28:39.204Z,99272.00
2019-02-22T06:33:46.011Z,99277.00
2019-02-22T06:38:53.123Z,99292.00
2019-02-22T06:44:00.599Z,99305.00
2019-02-22T06:49:08.063Z,99318.00
2019-02-22T06:54:15.344Z,99331.00
2019-02-22T06:59:34.426Z,99335.00
2019-02-22T07:04:41.128Z,99345.00
2019-02-22T07:09:48.421Z,99357.00
2019-02-22T07:14:55.486Z,99369.00
2019-02-22T07:20:04.755Z,99371.00
2019-02-22T07:25:23.304Z,99385.00
2019-02-22T07:30:29.222Z,99392.00
2019-02-22T07:35:35.242Z,99408.00
2019-02-22T07:40:42.200Z,99410.00
2019-02-22T07:45:49.211Z,99427.00
2019-02-22T07:50:58.123Z,99428.00
2019-02-22T07:56:04.556Z,99430.00
2019-02-22T08:01:11.817Z,99439.00
2019-02-22T08:06:18.642Z,99443.00
2019-02-22T08:11:24.561Z,99454.00
2019-02-22T08:16:32.106Z,99460.00
2019-02-22T08:21:38.104Z,99475.00
2019-02-22T08:27:07.313Z,99484.00
2019-02-22T08:32:13.879Z,99499.00
2019-02-22T08:37:20.769Z,99503.00
2019-02-22T08:42:26.806Z,99518.00
2019-02-22T08:47:32.586Z,99532.00
2019-02-22T08:52:38.484Z,99544.00
2019-02-22T08:57:44.369Z,99553.00
2019-02-22T09:02:50.290Z,99564.00
2019-02-22T09:07:57.520Z,99574.00
2019-02-22T09:13:04.336Z,99583.00
2019-02-22T09:18:12.119Z,99597.00
2019-02-22T09:23:18.924Z,99602.00
2019-02-22T09:28:25.287Z,99612.00
2019-02-22T09:33:32.222Z,99616.00
2019-02-22T09:38:40.325Z,99626.00
2019-02-22T09:43:55.403Z,99640.00
2019-02-22T09:48:56.269Z,99652.00
2019-02-22T09:54:03.433Z,99656.00
2019-02-22T09:59:11.153Z,99674.00
2019-02-22T10:04:19.672Z,99681.00
2019-02-22T10:09:25.634Z,99683.00
2019-02-22T10:14:32.323Z,99680.00
2019-02-22T10:19:38.315Z,99691.00
2019-02-22T10:24:45.101Z,99705.00
2019-02-22T10:29:51.978Z,99718.00
2019-02-22T10:34:59.036Z,99734.00
2019-02-22T10:40:09.041Z,99739.00
2019-02-22T10:45:15.444Z,99761.00
2019-02-22T10:50:22.783Z,99771.00
2019-02-22T10:55:28.809Z,99781.00
2019-02-22T11:00:36.635Z,99788.00
2019-02-22T11:05:43.274Z,99778.00
2019-02-22T11:10:50.065Z,99794.00
2019-02-22T11:15:56.971Z,99800.00
2019-02-22T11:21:04.499Z,99794.00
2019-02-22T11:26:11.337Z,99795.00
2019-02-22T11:31:36.569Z,99809.00
2019-02-22T11:36:43.673Z,99817.00
2019-02-22T11:41:50.521Z,99820.00
2019-02-22T11:46:57.165Z,99835.00
2019-02-22T11:52:04.061Z,99830.00
2019-02-22T11:57:11.556Z,99837.00
2019-02-22T12:02:18.507Z,99837.00
2019-02-22T12:07:24.672Z,99857.00
2019-02-22T12:12:31.632Z,99851.00
2019-02-22T12:17:37.615Z,99855.00
2019-02-22T12:22:43.464Z,99870.00
2019-02-22T12:27:50.676Z,99881.00
2019-02-22T12:32:57.069Z,99896.00
2019-02-22T12:38:03.980Z,99911.00
2019-02-22T12:43:10.749Z,99924.00
2019-02-22T12:48:17.512Z,99916.00
2019-02-22T12:53:23.406Z,99937.00
2019-02-22T12:58:31.308Z,99940.00
2019-02-22T13:03:37.179Z,99953.00
2019-02-22T13:08:56.730Z,99945.00
2019-02-22T13:14:03.706Z,99958.00
2019-02-22T13:19:29.080Z,99969.00
2019-02-22T13:24:36.094Z,99977.00
2019-02-22T13:29:42.952Z,99990.00
2019-02-22T13:34:49.761Z,99996.00
2019-02-22T13:39:56.746Z,100005.00
2019-02-22T13:45:06.791Z,100015.00
2019-02-22T13:50:17.024Z,100014.00
2019-02-22T13:55:23.537Z,100032.00
2019-02-22T14:00:29.607Z,100037.00
2019-02-22T14:05:49.173Z,100048.00
2019-02-22T14:10:56.394Z,100058.00
2019-02-22T14:16:02.963Z,100066.00
2019-02-22T14:21:09.590Z,100062.00
2019-02-22T14:26:17.461Z,100063.00
2019-02-22T14:31:23.539Z,100052.00
2019-02-22T14:36:31.147Z,100064.00
2019-02-22T14:41:38.101Z,100061.00
2019-02-22T14:46:44.577Z,100068.00
2019-02-22T14:52:12.839Z,100073.00
2019-02-22T14:57:19.609Z,100075.00
2019-02-22T15:02:25.596Z,100093.00
2019-02-22T15:07:32.428Z,100098.00
2019-02-22T15:12:38.432Z,100097.00
2019-02-22T15:17:46.162Z,100117.00
2019-02-22T15:22:53.156Z,100124.00
2019-02-22T15:28:00.138Z,100125.00
2019-02-22T15:33:07.310Z,100146.00
2019-02-22T15:38:14.546Z,100148.00
2019-02-22T15:43:21.705Z,100161.00
2019-02-22T15:48:27.901Z,100159.00
2019-02-22T15:53:34.136Z,100168.00
2019-02-22T15:58:41.097Z,100172.00
2019-02-22T16:03:55.598Z,100185.00
2019-02-22T16:09:03.058Z,100197.00
2019-02-22T16:14:11.851Z,100213.00
2019-02-22T16:19:19.511Z,100213.00
2019-02-22T16:24:25.718Z,100218.00
2019-02-22T16:29:32.743Z,100222.00
2019-02-22T16:35:02.121Z,100222.00
2019-02-22T16:40:12.450Z,100226.00
2019-02-22T16:45:19.674Z,100220.00
2019-02-22T16:50:25.656Z,100221.00
2019-02-22T16:55:31.987Z,100232.00
2019-02-22T17:00:39.406Z,100244.00
2019-02-22T17:05:46.918Z,100259.00
2019-02-22T17:10:54.316Z,100255.00
2019-02-22T17:16:01.801Z,100270.00
2019-02-22T17:21:09.068Z,100266.00
2019-02-22T17:26:16.646Z,100260.00
2019-02-22T17:31:23.317Z,100261.00
2019-02-22T17:36:29.760Z,100276.00
2019-02-22T17:41:36.180Z,100285.00
2019-02-22T17:46:43.731Z,100283.00
2019-02-22T17:51:50.633Z,100293.00
2019-02-22T17:56:59.664Z,100300.00
2019-02-22T18:02:18.328Z,100314.00
2019-02-22T18:07:24.341Z,100313.00
2019-02-22T18:12:31.538Z,100313.00
2019-02-22T18:17:37.501Z,100321.00
2019-02-22T18:22:44.413Z,100335.00
2019-02-22T18:27:51.263Z,100333.00
2019-02-22T18:32:58.287Z,100345.00
2019-02-22T18:38:05.273Z,100355.00
2019-02-22T18:43:12.213Z,100354.00
2019-02-22T18:48:19.037Z,100336.00
2019-02-22T18:53:25.267Z,100341.00
2019-02-22T18:58:32.268Z,100337.00
2019-02-22T19:03:38.962Z,100326.00
2019-02-22T19:08:45.889Z,100330.00
2019-02-22T19:13:52.854Z,100342.00
2019-02-22T19:18:59.552Z,100353.00
2019-02-22T19:24:06.402Z,100359.00
2019-02-22T19:29:13.399Z,100356.00
2019-02-22T19:34:20.004Z,100360.00
2019-02-22T19:39:26.020Z,100380.00
2019-02-22T19:44:35.038Z,100377.00
2019-02-22T19:49:41.713Z,100390.00
2019-02-22T19:54:48.273Z,100402.00
2019-02-22T20:00:17.157Z,100399.00
2019-02-22T20:05:23.355Z,100396.00
2019-02-22T20:10:29.597Z,100411.00
2019-02-22T20:15:48.874Z,100399.00
2019-02-22T20:20:55.796Z,100403.00
2019-02-22T20:26:02.522Z,100409.00
2019-02-22T20:31:19.928Z,100417.00
2019-02-22T20:36:27.931Z,100418.00
2019-02-22T20:41:27.433Z,100417.00
2019-02-22T20:46:35.311Z,100419.00
2019-02-22T20:51:42.948Z,100433.00
2019-02-22T20:56:50.045Z,100443.00
2019-02-22T21:01:56.986Z,100435.00
2019-02-22T21:07:04.954Z,100436.00
2019-02-22T21:12:11.944Z,100430.00
2019-02-22T21:17:18.803Z,100435.00
2019-02-22T21:22:24.805Z,100426.00
2019-02-22T21:27:30.752Z,100438.00
2019-02-22T21:32:37.790Z,100447.00
2019-02-22T21:37:44.957Z,100447.00
2019-02-22T21:43:10.194Z,100438.00
2019-02-22T21:48:27.123Z,100451.00
2019-02-22T21:53:25.269Z,100442.00
2019-02-22T21:58:31.421Z,100448.00
2019-02-22T22:03:37.417Z,100458.00
2019-02-22T22:08:44.410Z,100451.00
2019-02-22T22:14:12.478Z,100441.00
2019-02-22T22:19:19.140Z,100448.00
2019-02-22T22:24:25.103Z,100437.00
2019-02-22T22:29:32.805Z,100439.00
2019-02-22T22:34:39.641Z,100451.00
2019-02-22T22:39:46.555Z,100447.00
2019-02-22T22:44:53.467Z,100438.00
2019-02-22T22:50:00.459Z,100438.00
2019-02-22T22:55:09.670Z,100459.00
2019-02-22T23:00:51.540Z,100457.00
2019-02-22T23:06:19.402Z,100465.00
2019-02-22T23:11:25.472Z,100473.00
2019-02-22T23:16:32.352Z,100485.00
2019-02-22T23:21:38.397Z,100493.00
2019-02-22T23:26:45.222Z,100492.00
2019-02-22T23:31:52.116Z,100505.00
2019-02-22T23:36:59.013Z,100503.00
2019-02-22T23:42:05.527Z,100499.00
2019-02-22T23:47:12.074Z,100513.00
2019-02-22T23:52:18.571Z,100508.00
2019-02-22T23:57:24.568Z,100502.00
